キンシャサ の空港の天気 - METARとTAF

キンシャサ/ヌジリ国際空港 ( FZAA / FIH ) - コンゴ民主共和国 キンシャサ
飛行場実況気象(Metar)
観測時間07/29 02:00 WAT (07/29 01:00 UTC)
風向・風速西 3m/s
視程-
天気現象
-
気温-
湿度-
気圧-
METARFZAA 290100Z 27006KT 0100Z NIL
過去の天気等 Google飛行場航空写真 Wunderground天気予報

過去48時間のMETAR

飛行場予報(TAF)
発表時間: 7/29 00:00 WAT (7/28 23:00 UTC)
予報対象時間: 29日1時 WAT ~ 30日7時 WAT
風向・風速南西 3m/s
視程4000m
天気現象もや
少しの雲 雲底高度 430m
29日10時 WAT ~ 29日12時 WAT に徐々に
視程6000m
天気現象運行に影響にある天気現象が終了
全天の4割程度の雲 雲底高度 550m
30日4時 WAT ~ 30日6時 WAT に徐々に
視程4000m
天気現象もや
全天の8割程度の雲 雲底高度 430m
TAF FZAA 282300Z 2900/3006 23006KT 4000 BR FEW014
BECMG 2909/2911 6000 NSW SCT018
BECMG 3003/3005 4000 BR BKN014